倫敦, 英國

2014年11月23日 16時47分 (GMT +0000)
Heathrow | Change Station
CLOSE
Current Station
機場
Location: London,
海拔: 79 ft
附近的氣象站

海拔 79 ft 51.48 °N, 0.46 °W | Updated 27 minutes ago

Light Drizzle
小細雨
45 °F
感覺像 43 °F
4
風 變化 風 來自 西北

今日
高 -- | 低 -- °F
--% 降水機率
昨天
高 -- | 低 -- °F
Precip. -- 英寸
7:32 AM 4:03 PM
新月, 2% visible
氣壓 30.06 英寸
能見度 6.2 英里
多雲
風寒指數 43 °F
露點 43 °F
濕度 93%
降雨量 0.00 英寸
積雪深度 不適用。
紫外線 不適用。
花粉 不適用。
空氣質素 不適用。
Flu Activity 不適用。
METAR EGLL 231620Z AUTO 31003KT 9999 -DZ NCD 07/06 Q1018

More Conditions Fewer Conditions

氣壓 30.06 英寸
能見度 6.2 英里
多雲
風寒指數 43 °F
露點 43 °F
濕度 93%
降雨量 0.00 英寸
積雪深度 不適用。
紫外線 不適用。
花粉 不適用。
空氣質素 不適用。
Flu Activity 不適用。
METAR EGLL 231620Z AUTO 31003KT 9999 -DZ NCD 07/06 Q1018

More Conditions Fewer Conditions

10-Day Weather Forecast

Almanac

天文

Nov. 23, 2014 昇起 降落
實際時間
民用曙暮光
航海曙暮光
天文學微明
月亮
可見光的長度
白晝時間
Tomorrow will be .
, % of the Moon is Illuminated

今天之最

國家高溫 國家低溫

Community

WunderPhotos

Upload Photos

1,773,093 照片已上傳!

WunderBlogs® & News

Nearby

空氣質素

  空氣質素 空氣質素指數 污染物
Not available.

積雪量

Station 深度 海拔

地震活動

城市 距離 時間和日期
顯示的最小幅度是2.5。

沿海水溫

地點 溫度

附近的氣象站